createdAt,value
2019-03-10T00:00:41.260Z,4.30
2019-03-10T00:03:09.873Z,4.30
2019-03-10T00:05:38.458Z,4.40
2019-03-10T00:08:26.433Z,4.40
2019-03-10T00:10:55.061Z,4.40
2019-03-10T00:13:23.584Z,4.40
2019-03-10T00:15:52.232Z,4.40
2019-03-10T00:18:20.859Z,4.40
2019-03-10T00:20:49.317Z,4.40
2019-03-10T00:23:17.816Z,4.40
2019-03-10T00:25:46.351Z,4.30
2019-03-10T00:28:14.931Z,4.10
2019-03-10T00:30:43.428Z,3.90
2019-03-10T00:33:11.875Z,3.70
2019-03-10T00:35:40.345Z,3.60
2019-03-10T00:38:08.980Z,3.60
2019-03-10T00:40:57.291Z,3.60
2019-03-10T00:43:34.683Z,3.60
2019-03-10T00:46:22.699Z,3.60
2019-03-10T00:49:15.233Z,3.50
2019-03-10T00:51:52.385Z,3.50
2019-03-10T00:54:20.909Z,3.50
2019-03-10T00:56:49.374Z,3.50
2019-03-10T00:59:17.891Z,3.50
2019-03-10T01:01:46.383Z,3.50
2019-03-10T01:04:14.826Z,3.50
2019-03-10T01:06:43.455Z,3.50
2019-03-10T01:09:11.961Z,3.60
2019-03-10T01:11:40.416Z,3.60
2019-03-10T01:14:08.872Z,3.60
2019-03-10T01:16:37.992Z,3.60
2019-03-10T01:19:06.513Z,3.60
2019-03-10T01:21:35.420Z,3.70
2019-03-10T01:24:04.263Z,3.70
2019-03-10T01:26:32.951Z,3.70
2019-03-10T01:29:01.483Z,3.70
2019-03-10T01:32:06.410Z,3.60
2019-03-10T01:34:46.210Z,3.70
2019-03-10T01:37:14.768Z,3.70
2019-03-10T01:39:43.219Z,3.70
2019-03-10T01:42:11.666Z,3.70
2019-03-10T01:44:40.183Z,3.70
2019-03-10T01:47:08.638Z,3.70
2019-03-10T01:49:37.152Z,3.70
2019-03-10T01:52:08.765Z,3.80
2019-03-10T01:54:37.765Z,3.80
2019-03-10T01:57:06.298Z,3.80
2019-03-10T01:59:34.828Z,3.80
2019-03-10T02:02:03.284Z,3.80
2019-03-10T02:04:31.740Z,3.80
2019-03-10T02:07:00.312Z,3.90
2019-03-10T02:09:28.882Z,3.90
2019-03-10T02:11:57.408Z,3.90
2019-03-10T02:14:25.924Z,3.90
2019-03-10T02:16:54.375Z,3.90
2019-03-10T02:19:22.960Z,4.00
2019-03-10T02:21:51.464Z,4.00
2019-03-10T02:24:23.770Z,4.00
2019-03-10T02:26:50.150Z,4.00
2019-03-10T02:29:18.635Z,4.00
2019-03-10T02:31:47.085Z,4.00
2019-03-10T02:34:15.543Z,4.00
2019-03-10T02:36:44.025Z,4.00
2019-03-10T02:39:12.494Z,4.10
2019-03-10T02:41:41.069Z,4.10
2019-03-10T02:44:09.704Z,4.10
2019-03-10T02:46:38.330Z,4.10
2019-03-10T02:49:06.777Z,4.20
2019-03-10T02:51:35.273Z,4.20
2019-03-10T02:54:03.819Z,4.30
2019-03-10T02:56:32.411Z,4.30
2019-03-10T02:59:00.971Z,4.20
2019-03-10T03:01:29.561Z,4.20
2019-03-10T03:03:58.078Z,4.30
2019-03-10T03:06:26.576Z,4.30
2019-03-10T03:08:55.092Z,4.20
2019-03-10T03:11:23.619Z,4.20
2019-03-10T03:13:52.100Z,4.20
2019-03-10T03:16:20.546Z,4.20
2019-03-10T03:18:49.015Z,4.10
2019-03-10T03:21:17.578Z,4.00
2019-03-10T03:23:46.127Z,4.00
2019-03-10T03:26:14.639Z,4.00
2019-03-10T03:28:43.365Z,3.90
2019-03-10T03:31:11.831Z,3.90
2019-03-10T03:33:40.349Z,3.90
2019-03-10T03:36:29.944Z,3.90
2019-03-10T03:39:01.706Z,3.80
2019-03-10T03:41:30.297Z,3.80
2019-03-10T03:43:58.779Z,3.90
2019-03-10T03:46:27.228Z,3.90
2019-03-10T03:48:55.691Z,3.80
2019-03-10T03:51:24.395Z,3.70
2019-03-10T03:53:52.891Z,3.70
2019-03-10T03:56:21.335Z,3.60
2019-03-10T03:58:49.828Z,3.60
2019-03-10T04:01:28.923Z,3.60
2019-03-10T04:03:57.528Z,3.60
2019-03-10T04:06:25.985Z,3.60
2019-03-10T04:08:54.496Z,3.60
2019-03-10T04:11:22.982Z,3.60
2019-03-10T04:13:51.435Z,3.60
2019-03-10T04:16:19.906Z,3.50
2019-03-10T04:18:48.481Z,3.50
2019-03-10T04:21:16.947Z,3.50
2019-03-10T04:23:45.420Z,3.50
2019-03-10T04:26:14.060Z,3.40
2019-03-10T04:28:42.495Z,3.40
2019-03-10T04:31:10.954Z,3.40
2019-03-10T04:33:39.459Z,3.40
2019-03-10T04:36:07.970Z,3.40
2019-03-10T04:38:36.459Z,3.40
2019-03-10T04:41:05.031Z,3.40
2019-03-10T04:43:33.475Z,3.40
2019-03-10T04:46:01.919Z,3.40
2019-03-10T04:48:30.484Z,3.40
2019-03-10T04:50:58.975Z,3.40
2019-03-10T04:53:27.469Z,3.40
2019-03-10T04:55:57.688Z,3.40
2019-03-10T04:58:26.412Z,3.40
2019-03-10T05:00:56.568Z,3.40
2019-03-10T05:03:25.075Z,3.40
2019-03-10T05:05:53.596Z,3.40
2019-03-10T05:08:22.043Z,3.40
2019-03-10T05:10:50.624Z,3.40
2019-03-10T05:13:19.084Z,3.40
2019-03-10T05:15:47.526Z,3.40
2019-03-10T05:18:16.108Z,3.40
2019-03-10T05:20:44.550Z,3.40
2019-03-10T05:23:33.218Z,3.40
2019-03-10T05:26:01.817Z,3.30
2019-03-10T05:28:32.217Z,3.20
2019-03-10T05:31:00.777Z,3.20
2019-03-10T05:33:29.229Z,3.10
2019-03-10T05:35:57.711Z,3.10
2019-03-10T05:38:26.281Z,3.00
2019-03-10T05:40:54.833Z,3.00
2019-03-10T05:43:42.689Z,2.90
2019-03-10T05:46:11.149Z,2.90
2019-03-10T05:48:40.114Z,2.90
2019-03-10T05:51:08.591Z,2.90
2019-03-10T05:53:37.036Z,2.90
2019-03-10T05:56:05.486Z,2.90
2019-03-10T05:58:35.344Z,2.90
2019-03-10T06:01:04.112Z,2.90
2019-03-10T06:03:32.622Z,2.90
2019-03-10T06:06:01.129Z,2.90
2019-03-10T06:08:29.633Z,2.90
2019-03-10T06:10:58.113Z,3.00
2019-03-10T06:13:26.709Z,3.00
2019-03-10T06:15:55.282Z,3.00
2019-03-10T06:18:23.811Z,3.00
2019-03-10T06:20:52.284Z,3.00
2019-03-10T06:23:20.738Z,3.10
2019-03-10T06:25:49.262Z,3.10
2019-03-10T06:28:37.288Z,3.20
2019-03-10T06:31:05.755Z,3.20
2019-03-10T06:33:34.209Z,3.20
2019-03-10T06:36:02.699Z,3.20
2019-03-10T06:38:31.152Z,3.20
2019-03-10T06:40:59.593Z,3.20
2019-03-10T06:43:28.192Z,3.20
2019-03-10T06:45:56.643Z,3.30
2019-03-10T06:48:44.480Z,3.30
2019-03-10T06:51:12.947Z,3.30
2019-03-10T06:53:41.396Z,3.30
2019-03-10T06:56:09.910Z,3.40
2019-03-10T06:58:38.367Z,3.40
2019-03-10T07:01:06.961Z,3.40
2019-03-10T07:03:35.459Z,3.40
2019-03-10T07:06:04.109Z,3.50
2019-03-10T07:08:32.756Z,3.50
2019-03-10T07:11:01.354Z,3.50
2019-03-10T07:13:29.802Z,3.60
2019-03-10T07:15:58.266Z,3.60
2019-03-10T07:18:32.479Z,3.70
2019-03-10T07:21:01.001Z,3.70
2019-03-10T07:23:29.464Z,3.70
2019-03-10T07:26:07.131Z,3.80
2019-03-10T07:28:41.253Z,3.80
2019-03-10T07:31:17.254Z,3.90
2019-03-10T07:33:53.434Z,3.90
2019-03-10T07:36:35.507Z,4.00
2019-03-10T07:39:21.737Z,4.10
2019-03-10T07:42:00.779Z,4.10
2019-03-10T07:44:41.127Z,4.10
2019-03-10T07:47:13.673Z,4.20
2019-03-10T07:49:43.765Z,4.30
2019-03-10T07:52:30.659Z,4.30
2019-03-10T07:55:00.826Z,4.40
2019-03-10T07:57:49.117Z,4.40
2019-03-10T08:00:24.910Z,4.40
2019-03-10T08:03:04.118Z,4.60
2019-03-10T08:05:50.544Z,4.60
2019-03-10T08:08:23.419Z,4.60
2019-03-10T08:10:53.514Z,4.50
2019-03-10T08:13:29.757Z,4.50
2019-03-10T08:15:59.921Z,4.50
2019-03-10T08:18:36.300Z,4.50
2019-03-10T08:21:22.966Z,4.50
2019-03-10T08:24:08.634Z,4.50
2019-03-10T08:26:38.796Z,4.40
2019-03-10T08:29:20.939Z,4.40
2019-03-10T08:31:57.115Z,4.30
2019-03-10T08:34:30.132Z,4.30
2019-03-10T08:37:03.326Z,4.30
2019-03-10T08:39:51.968Z,4.30
2019-03-10T08:42:41.057Z,4.40
2019-03-10T08:45:16.992Z,4.50
2019-03-10T08:47:51.061Z,4.50
2019-03-10T08:50:27.065Z,4.60
2019-03-10T08:53:12.255Z,4.60
2019-03-10T08:55:42.398Z,4.70
2019-03-10T08:58:15.252Z,4.70
2019-03-10T09:00:51.256Z,4.40
2019-03-10T09:03:27.146Z,2.90
2019-03-10T09:06:13.777Z,2.40
2019-03-10T09:08:46.803Z,2.10
2019-03-10T09:11:29.346Z,2.00
2019-03-10T09:14:02.503Z,2.00
2019-03-10T09:16:32.696Z,2.00
2019-03-10T09:19:08.593Z,2.00
2019-03-10T09:21:41.666Z,2.10
2019-03-10T09:24:17.707Z,2.20
2019-03-10T09:27:06.160Z,2.30
2019-03-10T09:29:48.340Z,2.50
2019-03-10T09:32:18.426Z,2.60
2019-03-10T09:34:48.525Z,2.80
2019-03-10T09:37:18.738Z,3.00
2019-03-10T09:39:51.682Z,3.10
2019-03-10T09:42:41.460Z,3.20
2019-03-10T09:45:11.684Z,3.20
2019-03-10T09:47:53.512Z,3.40
2019-03-10T09:50:23.608Z,3.50
2019-03-10T09:53:11.999Z,3.60
2019-03-10T09:55:42.155Z,3.80
2019-03-10T09:58:18.469Z,4.10
2019-03-10T10:00:51.052Z,4.30
2019-03-10T10:03:23.870Z,4.50
2019-03-10T10:05:53.973Z,4.70
2019-03-10T10:08:29.838Z,4.70
2019-03-10T10:11:02.728Z,4.80
2019-03-10T10:16:25.034Z,4.80
2019-03-10T10:19:06.988Z,4.80
2019-03-10T10:21:39.516Z,4.80
2019-03-10T10:24:12.633Z,4.80
2019-03-10T10:26:45.751Z,4.80
2019-03-10T10:29:34.133Z,4.80
2019-03-10T10:32:07.004Z,5.00
2019-03-10T10:34:52.145Z,5.00
2019-03-10T10:37:22.236Z,5.00
2019-03-10T10:39:52.409Z,5.00
2019-03-10T10:42:28.585Z,4.90
2019-03-10T10:45:07.760Z,4.80
2019-03-10T10:47:46.833Z,4.70
2019-03-10T10:50:19.374Z,4.60
2019-03-10T10:52:49.546Z,4.70
2019-03-10T10:55:19.825Z,4.70
2019-03-10T10:57:52.906Z,4.70
2019-03-10T11:00:32.126Z,4.50
2019-03-10T11:03:14.221Z,4.30
2019-03-10T11:05:44.431Z,4.20
2019-03-10T11:08:17.388Z,4.10
2019-03-10T11:10:47.485Z,4.20
2019-03-10T11:13:23.515Z,4.30
2019-03-10T11:15:53.835Z,4.40
2019-03-10T11:18:33.327Z,4.50
2019-03-10T11:23:54.016Z,4.50
2019-03-10T11:26:24.164Z,4.50
2019-03-10T11:29:04.031Z,4.50
2019-03-10T11:31:34.592Z,4.60
2019-03-10T11:34:20.677Z,4.50
2019-03-10T11:37:03.004Z,4.30
2019-03-10T11:39:33.094Z,4.00
2019-03-10T11:42:03.189Z,3.80
2019-03-10T11:44:33.332Z,3.90
2019-03-10T11:47:09.366Z,3.80
2019-03-10T11:49:42.022Z,3.90
2019-03-10T11:52:14.699Z,4.00
2019-03-10T11:54:44.849Z,3.90
2019-03-10T11:57:46.586Z,3.90
2019-03-10T12:00:21.431Z,3.90
2019-03-10T12:02:54.533Z,4.10
2019-03-10T12:05:24.629Z,4.00
2019-03-10T12:07:57.716Z,4.00
2019-03-10T12:10:26.319Z,4.10
2019-03-10T12:12:54.990Z,4.30
2019-03-10T12:15:23.516Z,4.50
2019-03-10T12:17:52.096Z,4.50
2019-03-10T12:20:20.701Z,4.70
2019-03-10T12:22:49.219Z,4.90
2019-03-10T12:25:17.878Z,5.00
2019-03-10T12:27:46.330Z,5.10
2019-03-10T12:30:16.346Z,4.80
2019-03-10T12:32:45.154Z,4.70
2019-03-10T12:35:13.692Z,4.60
2019-03-10T12:37:42.231Z,4.50
2019-03-10T12:40:12.325Z,4.60
2019-03-10T12:42:40.905Z,4.50
2019-03-10T12:45:10.950Z,4.60
2019-03-10T12:47:39.509Z,4.70
2019-03-10T12:50:12.942Z,4.70
2019-03-10T12:52:41.576Z,4.80
2019-03-10T12:55:10.822Z,4.80
2019-03-10T12:57:39.340Z,4.80
2019-03-10T13:00:15.913Z,4.90
2019-03-10T13:02:45.047Z,4.80
2019-03-10T13:05:13.654Z,4.80
2019-03-10T13:07:42.454Z,4.70
2019-03-10T13:10:12.671Z,4.50
2019-03-10T13:12:41.219Z,4.40
2019-03-10T13:15:11.755Z,4.40
2019-03-10T13:17:40.204Z,4.30
2019-03-10T13:20:12.226Z,4.00
2019-03-10T13:22:41.000Z,3.80
2019-03-10T13:25:11.804Z,3.60
2019-03-10T13:27:40.373Z,3.50
2019-03-10T13:30:11.512Z,3.40
2019-03-10T13:32:39.956Z,3.20
2019-03-10T13:35:08.654Z,3.20
2019-03-10T13:37:37.216Z,3.30
2019-03-10T13:40:11.253Z,3.10
2019-03-10T13:42:39.728Z,3.10
2019-03-10T13:45:11.388Z,3.00
2019-03-10T13:47:39.909Z,3.10
2019-03-10T13:50:11.672Z,3.10
2019-03-10T13:52:42.655Z,3.20
2019-03-10T13:55:11.301Z,3.30
2019-03-10T13:57:39.758Z,3.40
2019-03-10T14:00:14.377Z,3.50
2019-03-10T14:02:42.904Z,3.60
2019-03-10T14:05:11.710Z,3.60
2019-03-10T14:07:40.363Z,3.60
2019-03-10T14:10:10.860Z,3.60
2019-03-10T14:12:39.436Z,3.60
2019-03-10T14:15:11.120Z,3.60
2019-03-10T14:17:39.592Z,3.60
2019-03-10T14:20:10.642Z,3.70
2019-03-10T14:22:39.211Z,3.60
2019-03-10T14:25:09.717Z,3.70
2019-03-10T14:27:38.231Z,3.80
2019-03-10T14:30:15.644Z,3.80
2019-03-10T14:32:44.342Z,3.70
2019-03-10T14:35:13.277Z,3.70
2019-03-10T14:37:41.943Z,3.60
2019-03-10T14:40:16.044Z,3.70
2019-03-10T14:42:44.701Z,3.80
2019-03-10T14:45:15.779Z,3.80
2019-03-10T14:47:44.470Z,3.70
2019-03-10T14:50:15.334Z,3.70
2019-03-10T14:52:43.880Z,3.70
2019-03-10T14:55:17.725Z,3.80
2019-03-10T14:57:46.182Z,3.70
2019-03-10T15:00:18.313Z,3.80
2019-03-10T15:02:47.187Z,3.80
2019-03-10T15:05:15.724Z,3.80
2019-03-10T15:07:44.226Z,3.80
2019-03-10T15:10:14.537Z,3.80
2019-03-10T15:12:43.498Z,3.80
2019-03-10T15:15:22.643Z,3.80
2019-03-10T15:17:50.413Z,3.90
2019-03-10T15:20:21.615Z,3.80
2019-03-10T15:22:49.922Z,4.10
2019-03-10T15:25:19.522Z,3.90
2019-03-10T15:27:48.041Z,3.90
2019-03-10T15:30:21.930Z,4.00
2019-03-10T15:32:50.408Z,4.00
2019-03-10T15:35:18.939Z,4.10
2019-03-10T15:37:47.500Z,4.10
2019-03-10T15:40:19.664Z,4.20
2019-03-10T15:42:48.362Z,4.20
2019-03-10T15:45:20.415Z,4.20
2019-03-10T15:47:49.072Z,4.20
2019-03-10T15:50:25.811Z,4.10
2019-03-10T15:52:54.510Z,4.10
2019-03-10T15:55:24.576Z,4.20
2019-03-10T15:57:53.489Z,4.20
2019-03-10T16:00:23.683Z,4.10
2019-03-10T16:02:52.288Z,4.00
2019-03-10T16:05:20.994Z,4.00
2019-03-10T16:07:49.628Z,3.90
2019-03-10T16:10:18.300Z,3.90
2019-03-10T16:12:49.374Z,3.90
2019-03-10T16:15:33.065Z,3.90
2019-03-10T16:18:01.649Z,3.80
2019-03-10T16:20:30.194Z,3.80
2019-03-10T16:22:58.913Z,3.80
2019-03-10T16:25:27.533Z,3.70
2019-03-10T16:27:56.145Z,3.60
2019-03-10T16:30:26.244Z,3.60
2019-03-10T16:32:54.879Z,3.50
2019-03-10T16:35:23.553Z,3.50
2019-03-10T16:37:52.280Z,3.40
2019-03-10T16:40:21.791Z,3.40
2019-03-10T16:42:50.456Z,3.30
2019-03-10T16:45:23.479Z,3.30
2019-03-10T16:47:52.108Z,3.20
2019-03-10T16:50:21.837Z,3.10
2019-03-10T16:52:50.559Z,3.10
2019-03-10T16:55:19.364Z,3.10
2019-03-10T16:57:47.965Z,3.10
2019-03-10T17:00:19.997Z,3.10
2019-03-10T17:02:49.407Z,3.10
2019-03-10T17:05:21.774Z,3.20
2019-03-10T17:07:50.714Z,3.10
2019-03-10T17:10:26.971Z,3.10
2019-03-10T17:12:55.600Z,3.10
2019-03-10T17:15:25.198Z,3.10
2019-03-10T17:17:53.874Z,3.00
2019-03-10T17:20:22.639Z,3.00
2019-03-10T17:22:51.246Z,3.00
2019-03-10T17:25:19.799Z,3.00
2019-03-10T17:27:48.533Z,3.00
2019-03-10T17:30:19.342Z,2.90
2019-03-10T17:32:50.145Z,2.90
2019-03-10T17:35:19.492Z,2.90
2019-03-10T17:37:48.931Z,2.80
2019-03-10T17:40:24.476Z,2.80
2019-03-10T17:42:53.234Z,2.80
2019-03-10T17:45:23.875Z,2.80
2019-03-10T17:47:52.369Z,2.80
2019-03-10T17:50:20.991Z,2.80
2019-03-10T17:52:50.236Z,2.80
2019-03-10T17:55:24.060Z,2.80
2019-03-10T17:57:52.659Z,2.80
2019-03-10T18:00:37.810Z,2.80
2019-03-10T18:03:06.478Z,2.70
2019-03-10T18:05:35.077Z,2.70
2019-03-10T18:08:03.689Z,2.70
2019-03-10T18:10:32.180Z,2.60
2019-03-10T18:13:00.699Z,2.60
2019-03-10T18:15:29.388Z,2.50
2019-03-10T18:17:57.898Z,2.50
2019-03-10T18:20:26.409Z,2.40
2019-03-10T18:22:55.012Z,2.30
2019-03-10T18:25:23.618Z,2.30
2019-03-10T18:27:52.183Z,2.20
2019-03-10T18:30:27.486Z,2.20
2019-03-10T18:32:55.962Z,2.20
2019-03-10T18:35:24.633Z,2.10
2019-03-10T18:37:53.153Z,2.10
2019-03-10T18:40:26.692Z,2.00
2019-03-10T18:42:55.342Z,2.00
2019-03-10T18:45:23.902Z,1.90
2019-03-10T18:47:52.361Z,1.80
2019-03-10T18:50:22.640Z,1.80
2019-03-10T18:52:51.201Z,1.70
2019-03-10T18:55:21.890Z,1.60
2019-03-10T18:57:50.567Z,1.60
2019-03-10T19:00:25.106Z,1.50
2019-03-10T19:02:53.778Z,1.50
2019-03-10T19:05:22.286Z,1.40
2019-03-10T19:07:50.837Z,1.30
2019-03-10T19:10:19.363Z,1.30
2019-03-10T19:12:47.947Z,1.20
2019-03-10T19:15:21.415Z,1.20
2019-03-10T19:17:49.950Z,1.10
2019-03-10T19:20:18.597Z,1.10
2019-03-10T19:22:47.213Z,1.00
2019-03-10T19:25:16.718Z,1.00
2019-03-10T19:27:45.567Z,0.90
2019-03-10T19:30:18.470Z,0.80
2019-03-10T19:32:47.088Z,0.80
2019-03-10T19:35:15.727Z,0.70
2019-03-10T19:37:44.215Z,0.70
2019-03-10T19:40:17.345Z,0.60
2019-03-10T19:42:46.097Z,0.60
2019-03-10T19:45:18.850Z,0.60
2019-03-10T19:47:47.458Z,0.60
2019-03-10T19:50:21.106Z,0.60
2019-03-10T19:52:49.989Z,0.60
2019-03-10T19:55:18.586Z,0.60
2019-03-10T19:57:47.163Z,0.50
2019-03-10T20:00:19.866Z,0.50
2019-03-10T20:02:49.872Z,0.40
2019-03-10T20:05:18.483Z,0.50
2019-03-10T20:07:47.097Z,0.40
2019-03-10T20:10:20.304Z,0.50
2019-03-10T20:12:50.491Z,0.40
2019-03-10T20:15:20.249Z,0.40
2019-03-10T20:17:48.849Z,0.30
2019-03-10T20:20:26.270Z,0.30
2019-03-10T20:22:54.831Z,0.30
2019-03-10T20:25:23.439Z,0.30
2019-03-10T20:27:51.995Z,0.20
2019-03-10T20:30:24.521Z,0.20
2019-03-10T20:32:53.213Z,0.20
2019-03-10T20:35:21.930Z,0.10
2019-03-10T20:37:50.561Z,0.10
2019-03-10T20:40:21.193Z,0.10
2019-03-10T20:45:34.707Z,0.10
2019-03-10T20:48:03.379Z,0.20
2019-03-10T20:50:31.891Z,0.20
2019-03-10T20:53:00.508Z,0.10
2019-03-10T20:55:29.085Z,0.10
2019-03-10T20:57:57.563Z,0.10
2019-03-10T21:00:28.402Z,0.10
2019-03-10T21:02:57.169Z,0.10
2019-03-10T21:05:25.692Z,0.00
2019-03-10T21:07:54.148Z,0.00
2019-03-10T21:10:24.269Z,-0.10
2019-03-10T21:12:52.757Z,-0.10
2019-03-10T21:15:22.434Z,-0.10
2019-03-10T21:17:51.070Z,-0.20
2019-03-10T21:20:20.975Z,-0.20
2019-03-10T21:22:51.018Z,-0.20
2019-03-10T21:25:30.603Z,-0.20
2019-03-10T21:27:59.276Z,-0.20
2019-03-10T21:30:29.473Z,-0.20
2019-03-10T21:32:58.048Z,-0.30
2019-03-10T21:35:26.501Z,-0.30
2019-03-10T21:37:55.037Z,-0.30
2019-03-10T21:40:32.343Z,-0.30
2019-03-10T21:43:00.867Z,-0.30
2019-03-10T21:45:29.332Z,-0.40
2019-03-10T21:47:58.162Z,-0.40
2019-03-10T21:50:26.851Z,-0.40
2019-03-10T21:52:55.381Z,-0.40
2019-03-10T21:55:23.964Z,-0.40
2019-03-10T21:57:52.417Z,-0.40
2019-03-10T22:00:21.442Z,-0.40
2019-03-10T22:02:50.417Z,-0.40
2019-03-10T22:05:19.138Z,-0.40
2019-03-10T22:07:47.889Z,-0.40
2019-03-10T22:10:27.565Z,-0.40
2019-03-10T22:12:53.435Z,-0.50
2019-03-10T22:15:22.020Z,-0.50
2019-03-10T22:17:50.787Z,-0.50
2019-03-10T22:20:20.248Z,-0.50
2019-03-10T22:22:50.045Z,-0.60
2019-03-10T22:25:19.303Z,-0.60
2019-03-10T22:28:07.274Z,-0.60
2019-03-10T22:30:35.730Z,-0.60
2019-03-10T22:33:04.331Z,-0.70
2019-03-10T22:35:32.910Z,-0.70
2019-03-10T22:38:01.388Z,-0.70
2019-03-10T22:40:29.932Z,-0.70
2019-03-10T22:42:58.503Z,-0.70
2019-03-10T22:45:27.038Z,-0.80
2019-03-10T22:47:55.581Z,-0.80
2019-03-10T22:50:24.112Z,-0.80
2019-03-10T22:52:52.930Z,-0.80
2019-03-10T22:55:21.387Z,-0.80
2019-03-10T22:57:49.891Z,-0.90
2019-03-10T23:00:43.115Z,-0.90
2019-03-10T23:03:11.779Z,-0.90
2019-03-10T23:05:59.472Z,-0.90
2019-03-10T23:08:27.977Z,-1.00
2019-03-10T23:10:56.508Z,-0.90
2019-03-10T23:13:24.970Z,-1.00
2019-03-10T23:15:53.476Z,-1.00
2019-03-10T23:18:21.926Z,-1.00
2019-03-10T23:20:51.336Z,-1.00
2019-03-10T23:23:19.879Z,-1.10
2019-03-10T23:25:48.426Z,-1.10
2019-03-10T23:28:16.893Z,-1.10
2019-03-10T23:30:45.549Z,-1.10
2019-03-10T23:33:14.090Z,-1.10
2019-03-10T23:35:43.114Z,-1.10
2019-03-10T23:38:11.609Z,-1.20
2019-03-10T23:40:40.070Z,-1.20
2019-03-10T23:43:08.690Z,-1.20
2019-03-10T23:45:37.194Z,-1.20
2019-03-10T23:48:05.639Z,-1.20
2019-03-10T23:50:34.096Z,-1.20
2019-03-10T23:53:02.588Z,-1.20
2019-03-10T23:55:31.053Z,-1.20
2019-03-10T23:58:00.631Z,-1.20
